Time;durP1;ratioP1;P1;durP2;ratioP2;P2;SDS_P1;SDS_P2;PMS_P1;PMS_P2;Temp;Humidity;BMP_temperature;BMP_pressure;BME280_temperature;BME280_humidity;BME280_pressure;Samples;Min_cycle;Max_cycle;Signal;HPM_P1;HPM_P2
2023/01/26 00:01:14;;;;;;;122.77;33.33;;;0.60;99.90;;;;;;4991623;28;20595;-69
2023/01/26 00:03:41;;;;;;;127.03;31.83;;;0.60;99.90;;;;;;4992735;28;20318;-69
2023/01/26 00:06:10;;;;;;;129.53;32.93;;;0.60;99.90;;;;;;4985456;28;20675;-69
2023/01/26 00:08:42;;;;;;;131.90;33.63;;;0.60;99.90;;;;;;4987807;28;20245;-69
2023/01/26 00:11:11;;;;;;;129.00;32.80;;;0.60;99.90;;;;;;4988676;28;20594;-69
2023/01/26 00:13:38;;;;;;;125.77;33.90;;;0.70;99.90;;;;;;4991541;28;20217;-69
2023/01/26 00:16:12;;;;;;;129.33;32.90;;;0.70;99.90;;;;;;4981314;28;20236;-69
2023/01/26 00:18:42;;;;;;;122.20;33.47;;;0.70;99.90;;;;;;4987958;28;20889;-69
2023/01/26 00:21:13;;;;;;;129.60;33.10;;;0.70;99.90;;;;;;4989701;28;20216;-70
2023/01/26 00:23:40;;;;;;;121.60;32.70;;;0.70;99.90;;;;;;4990735;28;20267;-69
2023/01/26 00:26:09;;;;;;;131.50;35.87;;;0.70;99.90;;;;;;4993702;28;20298;-69
2023/01/26 00:28:36;;;;;;;123.43;32.23;;;0.70;99.90;;;;;;4989299;28;20581;-69
2023/01/26 00:31:09;;;;;;;127.37;31.97;;;0.70;99.90;;;;;;4989379;28;20207;-69
2023/01/26 00:33:35;;;;;;;125.53;32.93;;;0.70;99.90;;;;;;4986218;28;20691;-69
2023/01/26 00:36:03;;;;;;;120.10;31.10;;;0.70;99.90;;;;;;4992971;28;20245;-69
2023/01/26 00:38:30;;;;;;;125.40;32.53;;;0.70;99.90;;;;;;4984718;28;20208;-69
2023/01/26 00:40:57;;;;;;;124.83;32.17;;;0.70;99.90;;;;;;4987385;28;20400;-69
2023/01/26 00:43:24;;;;;;;134.20;34.10;;;0.70;99.90;;;;;;4986887;28;20373;-70
2023/01/26 00:45:51;;;;;;;124.27;34.33;;;0.80;99.90;;;;;;4968068;28;20223;-69
2023/01/26 00:48:17;;;;;;;125.17;34.87;;;0.80;99.90;;;;;;4992156;28;20220;-69
2023/01/26 00:50:44;;;;;;;133.80;33.07;;;0.80;99.90;;;;;;4988274;28;20220;-69
2023/01/26 00:53:11;;;;;;;123.67;31.57;;;0.80;99.90;;;;;;4956519;28;20215;-69
2023/01/26 00:55:37;;;;;;;118.03;32.53;;;0.80;99.90;;;;;;4985202;28;20605;-67
2023/01/26 00:58:06;;;;;;;118.80;32.90;;;0.80;99.90;;;;;;4990505;28;20201;-69
2023/01/26 01:00:36;;;;;;;113.63;31.30;;;0.80;99.90;;;;;;4989163;28;20231;-69
2023/01/26 01:03:04;;;;;;;115.20;31.87;;;0.70;99.90;;;;;;4988903;28;20235;-69
2023/01/26 01:05:32;;;;;;;114.07;31.00;;;0.80;99.90;;;;;;4985716;28;20239;-69
2023/01/26 01:08:00;;;;;;;126.23;33.60;;;0.70;99.90;;;;;;4986020;28;20200;-69
2023/01/26 01:10:27;;;;;;;120.60;32.03;;;0.80;99.90;;;;;;4988159;28;20208;-69
2023/01/26 01:12:55;;;;;;;125.50;34.60;;;0.80;99.90;;;;;;4988919;28;20629;-70
2023/01/26 01:15:23;;;;;;;115.60;32.13;;;0.70;99.90;;;;;;4985839;28;20214;-69
2023/01/26 01:17:49;;;;;;;120.53;31.30;;;0.70;99.90;;;;;;4988413;28;20215;-69
2023/01/26 01:20:16;;;;;;;125.83;33.20;;;0.70;99.90;;;;;;4974700;28;20258;-69
2023/01/26 01:22:43;;;;;;;118.73;32.50;;;0.60;99.90;;;;;;4973324;28;20208;-69
2023/01/26 01:25:10;;;;;;;110.97;30.33;;;0.60;99.90;;;;;;4980578;28;20305;-69
2023/01/26 01:27:37;;;;;;;115.33;30.80;;;0.60;99.90;;;;;;4986831;28;20233;-69
2023/01/26 01:30:06;;;;;;;113.97;30.67;;;0.70;99.90;;;;;;4988200;28;20852;-69
2023/01/26 01:32:38;;;;;;;106.90;29.67;;;0.60;99.90;;;;;;4981569;28;20228;-69
2023/01/26 01:35:06;;;;;;;115.17;31.63;;;0.70;99.90;;;;;;4983716;28;20318;-69
2023/01/26 01:37:33;;;;;;;106.93;28.37;;;0.70;99.90;;;;;;4988578;28;20207;-69
2023/01/26 01:40:00;;;;;;;117.20;30.57;;;0.70;99.90;;;;;;4984290;28;20318;-69
2023/01/26 01:42:27;;;;;;;118.53;29.93;;;0.70;99.90;;;;;;4985869;28;20209;-69
2023/01/26 01:45:25;;;;;;;115.57;29.63;;;0.70;99.90;;;;;;4970632;28;20326;-69
2023/01/26 01:48:02;;;;;;;100.93;27.70;;;0.70;99.90;;;;;;4985770;28;20231;-69
2023/01/26 01:50:34;;;;;;;93.97;28.27;;;0.70;99.90;;;;;;4982827;28;20204;-69
2023/01/26 01:53:01;;;;;;;101.03;28.47;;;0.70;99.90;;;;;;4975895;28;20212;-69
2023/01/26 01:55:28;;;;;;;115.30;30.50;;;0.60;99.90;;;;;;4989287;28;20218;-68
2023/01/26 01:57:59;;;;;;;115.83;29.90;;;0.70;99.90;;;;;;4988088;28;20204;-69
2023/01/26 02:00:26;;;;;;;110.67;30.70;;;0.70;99.90;;;;;;4988867;28;20236;-69
2023/01/26 02:03:18;;;;;;;105.93;28.97;;;0.70;99.90;;;;;;4985319;28;20344;-69
2023/01/26 02:06:06;;;;;;;106.77;28.97;;;0.70;99.90;;;;;;4991230;28;20258;-67
2023/01/26 02:08:37;;;;;;;96.87;27.47;;;0.70;99.90;;;;;;4986934;28;20208;-70
2023/01/26 02:11:09;;;;;;;105.20;27.23;;;0.80;99.90;;;;;;4983717;28;20209;-69
2023/01/26 02:13:37;;;;;;;98.03;28.53;;;0.80;99.90;;;;;;4987473;28;20211;-68
2023/01/26 02:16:04;;;;;;;101.63;27.40;;;0.80;99.90;;;;;;4988296;28;20608;-67
2023/01/26 02:18:31;;;;;;;86.90;25.33;;;0.90;99.90;;;;;;4989935;28;20231;-69
2023/01/26 02:21:01;;;;;;;99.33;28.33;;;0.90;99.90;;;;;;4982840;28;20200;-69
2023/01/26 02:23:39;;;;;;;93.87;26.07;;;0.90;99.90;;;;;;4987358;28;20291;-69
2023/01/26 02:26:10;;;;;;;102.03;29.50;;;0.90;99.90;;;;;;4985454;28;20231;-69
2023/01/26 02:28:38;;;;;;;96.27;26.93;;;0.90;99.90;;;;;;4987513;28;20677;-70
2023/01/26 02:31:05;;;;;;;85.80;24.60;;;0.90;99.90;;;;;;4983813;28;20643;-69
2023/01/26 02:33:33;;;;;;;82.83;26.37;;;0.90;99.90;;;;;;4987975;28;20264;-69
2023/01/26 02:36:04;;;;;;;83.40;27.80;;;0.80;99.90;;;;;;4990731;28;20602;-67
2023/01/26 02:38:41;;;;;;;83.40;25.77;;;0.80;99.90;;;;;;4981742;28;20208;-69
2023/01/26 02:41:11;;;;;;;80.33;24.30;;;0.80;99.90;;;;;;4974745;28;20563;-69
2023/01/26 02:43:39;;;;;;;87.27;25.77;;;0.80;99.90;;;;;;4985154;28;20215;-67
2023/01/26 02:46:05;;;;;;;72.87;22.20;;;0.90;99.90;;;;;;4985714;28;20238;-68
2023/01/26 02:51:18;;;;;;;72.23;23.17;;;0.90;99.90;;;;;;4982431;28;20247;-68
2023/01/26 02:53:45;;;;;;;74.63;24.23;;;0.90;99.90;;;;;;4985573;28;20255;-69
2023/01/26 02:56:11;;;;;;;70.63;23.77;;;0.80;99.90;;;;;;4989523;28;20314;-68
2023/01/26 02:58:38;;;;;;;72.70;20.97;;;0.90;99.90;;;;;;4977925;28;20255;-68
2023/01/26 03:01:05;;;;;;;75.90;23.30;;;0.90;99.90;;;;;;4984475;28;20727;-69
2023/01/26 03:03:40;;;;;;;77.57;23.53;;;1.00;99.90;;;;;;4986659;28;20276;-69
2023/01/26 03:06:09;;;;;;;75.63;23.53;;;1.00;99.90;;;;;;4972080;28;20671;-69
2023/01/26 03:08:36;;;;;;;72.10;22.33;;;1.00;99.90;;;;;;4984134;28;20209;-68
2023/01/26 03:11:04;;;;;;;67.83;23.50;;;1.10;99.90;;;;;;4982593;28;20218;-69
2023/01/26 03:13:31;;;;;;;67.10;22.87;;;1.10;99.90;;;;;;4987616;28;20208;-69
2023/01/26 03:16:01;;;;;;;76.03;22.30;;;1.20;99.90;;;;;;4987185;28;20207;-68
2023/01/26 03:29:33;;;;;;;74.70;23.17;;;1.10;99.90;;;;;;4978533;28;20218;-69
2023/01/26 03:32:00;;;;;;;71.47;23.37;;;1.10;99.90;;;;;;4987172;28;20229;-69
2023/01/26 03:34:28;;;;;;;81.07;23.73;;;1.10;99.90;;;;;;4990513;28;20303;-69
2023/01/26 03:36:55;;;;;;;69.47;23.10;;;1.20;99.90;;;;;;4999606;28;20239;-69
2023/01/26 03:56:23;;;;;;;57.00;18.93;;;1.30;99.90;;;;;;4987138;28;20694;-68
2023/01/26 03:58:55;;;;;;;52.87;19.37;;;1.30;99.90;;;;;;4984948;28;20299;-68
2023/01/26 04:01:27;;;;;;;54.80;19.33;;;1.30;99.90;;;;;;4990087;28;20233;-68
2023/01/26 04:09:30;;;;;;;57.20;18.20;;;1.30;99.90;;;;;;4991236;28;20203;-69
2023/01/26 04:11:57;;;;;;;63.93;20.03;;;1.30;99.90;;;;;;4988409;28;20299;-68
2023/01/26 04:22:49;;;;;;;53.83;19.00;;;1.30;99.90;;;;;;4990593;28;20208;-69
2023/01/26 04:25:19;;;;;;;47.10;18.53;;;1.30;99.90;;;;;;4968339;28;20259;-69
2023/01/26 04:27:46;;;;;;;49.27;18.17;;;1.30;99.90;;;;;;4990177;28;20647;-69
2023/01/26 04:30:14;;;;;;;48.23;17.80;;;1.30;99.90;;;;;;4988950;28;20219;-68
2023/01/26 04:32:42;;;;;;;52.80;17.73;;;1.40;99.90;;;;;;4985348;28;20235;-69
2023/01/26 04:35:09;;;;;;;50.97;16.63;;;1.40;99.90;;;;;;4986439;28;20211;-69
2023/01/26 04:37:37;;;;;;;53.13;18.90;;;1.40;99.90;;;;;;4988028;28;20244;-66
2023/01/26 04:40:05;;;;;;;52.53;18.33;;;1.40;99.90;;;;;;4988857;28;20215;-68
2023/01/26 04:42:32;;;;;;;52.03;17.80;;;1.40;99.90;;;;;;4988226;28;20748;-69
2023/01/26 04:45:00;;;;;;;45.40;18.00;;;1.40;99.90;;;;;;4983075;28;20246;-68
2023/01/26 04:47:27;;;;;;;48.37;16.90;;;1.40;99.90;;;;;;4989535;28;20247;-69
2023/01/26 04:49:55;;;;;;;46.87;16.70;;;1.40;99.90;;;;;;4987389;28;20200;-69
2023/01/26 04:52:21;;;;;;;44.37;16.00;;;1.40;99.90;;;;;;4987911;28;20212;-69
2023/01/26 04:54:48;;;;;;;45.40;16.17;;;1.40;99.90;;;;;;4987391;28;20209;-69
2023/01/26 04:57:15;;;;;;;43.53;15.43;;;1.40;99.90;;;;;;4990005;28;20747;-68
2023/01/26 04:59:42;;;;;;;44.67;15.60;;;1.40;99.90;;;;;;4987945;28;20204;-70
2023/01/26 05:02:09;;;;;;;41.97;15.33;;;1.40;99.90;;;;;;4991180;28;20230;-68
2023/01/26 05:04:36;;;;;;;45.80;15.97;;;1.40;99.90;;;;;;4983330;28;20207;-68
2023/01/26 05:07:03;;;;;;;40.37;14.57;;;1.40;99.90;;;;;;4990219;28;20242;-68
2023/01/26 05:09:30;;;;;;;42.90;15.63;;;1.40;99.90;;;;;;4993315;28;20295;-68
2023/01/26 05:12:32;;;;;;;40.93;14.57;;;1.50;99.90;;;;;;4978633;28;20211;-68
2023/01/26 05:14:43;;;;;;;46.27;16.53;;;1.40;99.90;;;;;;4991333;28;20299;-68
2023/01/26 05:17:10;;;;;;;41.30;15.10;;;1.50;99.90;;;;;;4989273;28;20723;-68
2023/01/26 05:19:37;;;;;;;42.97;15.00;;;1.50;99.90;;;;;;4982983;28;20215;-68
2023/01/26 05:22:03;;;;;;;42.60;15.10;;;1.50;99.90;;;;;;4983661;28;20219;-68
2023/01/26 05:24:30;;;;;;;44.47;14.57;;;1.50;99.90;;;;;;4985887;28;20222;-68
2023/01/26 05:27:19;;;;;;;37.07;14.00;;;1.60;99.90;;;;;;4973568;28;20318;-68
2023/01/26 05:29:43;;;;;;;41.13;14.23;;;1.50;99.90;;;;;;4988460;28;20572;-68
2023/01/26 05:32:10;;;;;;;42.90;15.90;;;1.60;99.90;;;;;;4980729;28;20636;-68
2023/01/26 05:34:37;;;;;;;41.80;14.73;;;1.60;99.90;;;;;;4987917;28;20555;-67
2023/01/26 05:37:04;;;;;;;40.43;14.83;;;1.60;99.90;;;;;;4989280;28;20207;-67
2023/01/26 05:39:30;;;;;;;41.50;14.47;;;1.60;99.90;;;;;;4985354;28;20218;-68
2023/01/26 05:41:57;;;;;;;39.53;14.57;;;1.60;99.90;;;;;;4985069;28;20571;-68
2023/01/26 05:44:24;;;;;;;42.17;14.13;;;1.60;99.90;;;;;;4989057;28;20640;-68
2023/01/26 05:46:51;;;;;;;41.07;14.37;;;1.60;99.90;;;;;;4985459;28;20283;-68
2023/01/26 05:49:18;;;;;;;40.47;12.80;;;1.60;99.90;;;;;;4990395;28;20254;-68
2023/01/26 05:51:44;;;;;;;39.03;13.30;;;1.60;99.90;;;;;;4966137;28;20224;-68
2023/01/26 05:54:11;;;;;;;42.50;16.33;;;1.60;99.90;;;;;;4986029;28;20665;-68
2023/01/26 05:56:38;;;;;;;38.97;14.10;;;1.70;99.90;;;;;;4988846;28;20716;-68
2023/01/26 05:59:05;;;;;;;38.23;14.13;;;1.70;99.90;;;;;;4985837;28;20307;-68
2023/01/26 06:01:31;;;;;;;42.17;14.50;;;1.70;99.90;;;;;;4985434;28;20274;-68
2023/01/26 06:03:58;;;;;;;36.77;13.50;;;1.70;99.90;;;;;;4989066;28;20236;-68
2023/01/26 06:06:25;;;;;;;36.80;13.33;;;1.70;99.90;;;;;;4983399;28;20328;-68
2023/01/26 06:08:52;;;;;;;37.80;13.97;;;1.70;99.90;;;;;;4985087;28;20199;-68
2023/01/26 06:11:18;;;;;;;39.87;13.47;;;1.70;99.90;;;;;;4988621;28;20207;-68
2023/01/26 06:13:45;;;;;;;36.93;13.73;;;1.80;99.90;;;;;;4983791;28;20276;-68
2023/01/26 06:16:12;;;;;;;41.60;14.30;;;1.80;99.90;;;;;;4984466;28;20205;-69
2023/01/26 06:18:38;;;;;;;34.07;13.20;;;1.80;99.90;;;;;;4973544;28;20302;-68
2023/01/26 06:21:05;;;;;;;42.10;14.37;;;1.70;99.90;;;;;;4980721;28;20255;-68
2023/01/26 06:23:32;;;;;;;36.23;13.97;;;1.80;99.90;;;;;;4966580;28;20214;-68
2023/01/26 06:25:59;;;;;;;39.67;13.33;;;1.80;99.90;;;;;;4978802;28;20695;-68
2023/01/26 06:28:27;;;;;;;35.67;13.47;;;1.80;99.90;;;;;;4986691;28;20208;-68
2023/01/26 06:31:02;;;;;;;37.43;14.57;;;1.80;99.90;;;;;;4985003;28;20232;-68
2023/01/26 06:33:31;;;;;;;38.60;12.53;;;1.80;99.90;;;;;;4982178;28;20212;-69
2023/01/26 06:36:04;;;;;;;39.73;13.20;;;1.80;99.90;;;;;;4988978;28;20831;-69
2023/01/26 06:38:31;;;;;;;36.07;13.10;;;1.90;99.90;;;;;;4980589;28;20232;-69
2023/01/26 06:41:02;;;;;;;34.70;13.70;;;1.90;99.90;;;;;;4988076;28;20271;-69
2023/01/26 06:43:30;;;;;;;38.07;12.77;;;1.90;99.90;;;;;;4970205;28;20198;-69
2023/01/26 06:45:57;;;;;;;41.03;13.47;;;1.90;99.90;;;;;;4973148;28;20645;-69
2023/01/26 06:48:26;;;;;;;31.17;13.33;;;1.90;99.90;;;;;;4984910;28;20589;-69
2023/01/26 06:50:56;;;;;;;33.97;13.13;;;2.00;99.90;;;;;;4986320;28;20202;-69
2023/01/26 06:53:33;;;;;;;38.47;13.63;;;2.00;99.90;;;;;;4987352;28;20224;-69
2023/01/26 06:56:00;;;;;;;39.10;14.50;;;2.00;99.90;;;;;;4982366;28;20688;-69
2023/01/26 06:58:26;;;;;;;39.13;13.90;;;2.00;99.90;;;;;;4982334;28;20256;-69
2023/01/26 07:00:54;;;;;;;42.00;14.03;;;2.00;99.90;;;;;;4983973;28;20448;-69
2023/01/26 07:03:21;;;;;;;40.80;15.00;;;2.00;99.90;;;;;;4965908;28;20228;-69
2023/01/26 07:05:47;;;;;;;42.37;14.23;;;2.10;99.90;;;;;;4971395;28;20233;-69
2023/01/26 07:08:14;;;;;;;36.10;13.63;;;2.10;99.90;;;;;;4981759;28;20204;-69
2023/01/26 07:10:41;;;;;;;43.40;14.93;;;2.10;99.90;;;;;;4983510;28;20221;-69
2023/01/26 07:13:08;;;;;;;41.57;14.57;;;2.00;99.90;;;;;;4987737;28;20393;-69
2023/01/26 07:15:34;;;;;;;46.97;18.07;;;2.10;99.90;;;;;;4984824;28;20213;-69
2023/01/26 07:18:01;;;;;;;49.30;17.23;;;2.10;99.90;;;;;;4987183;28;20226;-68
2023/01/26 07:20:28;;;;;;;54.03;19.70;;;2.10;99.90;;;;;;4987873;28;20213;-69
2023/01/26 07:22:54;;;;;;;48.10;17.93;;;2.10;99.90;;;;;;4988400;28;20209;-69
2023/01/26 07:25:21;;;;;;;45.33;16.47;;;2.10;99.90;;;;;;4969334;28;20237;-68
2023/01/26 07:27:48;;;;;;;41.30;14.73;;;2.10;99.90;;;;;;4982889;28;20209;-68
2023/01/26 07:30:15;;;;;;;37.03;14.13;;;2.10;99.90;;;;;;4980586;28;20204;-69
2023/01/26 07:32:42;;;;;;;37.07;13.43;;;2.20;99.90;;;;;;4979572;28;20776;-68
2023/01/26 07:35:08;;;;;;;39.37;14.03;;;2.10;99.90;;;;;;4989491;28;20350;-69
2023/01/26 07:37:35;;;;;;;45.73;13.83;;;2.20;99.90;;;;;;4992311;28;20201;-69
2023/01/26 07:40:02;;;;;;;39.33;14.20;;;2.20;99.90;;;;;;4986038;28;20626;-67
2023/01/26 07:42:29;;;;;;;45.20;15.17;;;2.20;99.90;;;;;;4986414;28;20566;-69
2023/01/26 07:44:56;;;;;;;42.43;14.07;;;2.10;99.90;;;;;;4989475;28;20225;-70
2023/01/26 07:47:23;;;;;;;44.50;14.00;;;2.20;99.90;;;;;;4981142;28;20242;-70
2023/01/26 07:49:50;;;;;;;43.23;14.53;;;2.20;99.90;;;;;;4983706;28;20214;-69
2023/01/26 07:52:16;;;;;;;43.23;14.33;;;2.20;99.90;;;;;;4981822;28;20200;-69
2023/01/26 07:54:43;;;;;;;47.17;15.13;;;2.20;99.90;;;;;;4984246;28;20328;-70
2023/01/26 07:57:11;;;;;;;44.53;15.03;;;2.30;99.90;;;;;;4984718;28;20233;-71
2023/01/26 07:59:38;;;;;;;47.43;15.87;;;2.20;99.90;;;;;;4985795;28;20214;-68
2023/01/26 08:02:05;;;;;;;49.40;15.23;;;2.30;99.90;;;;;;4989490;28;20788;-69
2023/01/26 08:04:31;;;;;;;57.97;16.77;;;2.30;99.90;;;;;;4985548;28;20200;-69
2023/01/26 08:06:58;;;;;;;49.20;15.73;;;2.30;99.90;;;;;;4986886;28;20316;-70
2023/01/26 08:09:25;;;;;;;64.20;17.50;;;2.30;99.90;;;;;;4984499;28;20216;-68
2023/01/26 08:11:52;;;;;;;60.70;17.03;;;2.30;99.90;;;;;;4986650;28;20205;-69
2023/01/26 08:14:18;;;;;;;58.57;17.67;;;2.30;99.90;;;;;;4987675;28;20207;-71
2023/01/26 08:16:45;;;;;;;63.87;18.70;;;2.30;99.90;;;;;;4989359;28;20612;-70
2023/01/26 08:19:12;;;;;;;60.30;17.40;;;2.30;99.90;;;;;;4984997;28;20197;-68
2023/01/26 08:21:38;;;;;;;83.40;18.70;;;2.30;99.90;;;;;;4987315;28;20237;-68
2023/01/26 08:24:06;;;;;;;67.40;18.17;;;2.30;99.90;;;;;;4973016;28;20246;-68
2023/01/26 08:26:32;;;;;;;68.17;20.00;;;2.40;99.90;;;;;;4988848;28;20275;-70
2023/01/26 08:28:59;;;;;;;68.37;18.33;;;2.40;99.90;;;;;;4990378;28;20209;-69
2023/01/26 08:31:27;;;;;;;72.23;18.70;;;2.40;99.90;;;;;;4989631;28;20207;-68
2023/01/26 08:33:55;;;;;;;83.93;20.53;;;2.50;99.90;;;;;;4990274;28;20225;-68
2023/01/26 08:36:22;;;;;;;74.40;19.27;;;2.50;99.90;;;;;;4985476;28;20247;-67
2023/01/26 08:38:49;;;;;;;96.73;21.30;;;2.60;99.90;;;;;;4985197;28;20721;-69
2023/01/26 08:41:16;;;;;;;87.50;23.70;;;2.60;99.90;;;;;;4985651;28;20215;-70
2023/01/26 08:43:43;;;;;;;94.63;22.17;;;2.60;99.90;;;;;;4995332;28;20209;-69
2023/01/26 08:46:10;;;;;;;107.10;23.47;;;2.60;99.90;;;;;;4991314;28;20234;-70
2023/01/26 08:48:37;;;;;;;110.13;24.70;;;2.60;99.90;;;;;;4971591;28;20277;-69
2023/01/26 08:51:05;;;;;;;120.57;25.00;;;2.70;99.90;;;;;;4987675;28;20218;-70
2023/01/26 08:53:34;;;;;;;111.53;26.00;;;2.70;99.90;;;;;;4991624;28;20206;-70
2023/01/26 08:56:02;;;;;;;100.70;24.27;;;2.70;99.90;;;;;;4992235;28;20215;-70
2023/01/26 08:58:29;;;;;;;110.47;25.57;;;2.80;99.90;;;;;;4992129;28;20644;-69
2023/01/26 09:00:56;;;;;;;125.17;26.73;;;2.80;99.90;;;;;;4990651;28;20221;-69
2023/01/26 09:03:23;;;;;;;106.60;25.80;;;2.80;99.90;;;;;;4990089;28;20230;-68
2023/01/26 09:05:50;;;;;;;116.60;24.60;;;2.90;99.90;;;;;;4976315;28;20219;-68
2023/01/26 09:08:16;;;;;;;131.13;26.97;;;2.90;99.90;;;;;;4992114;28;20275;-68
2023/01/26 09:10:46;;;;;;;136.37;26.97;;;3.00;99.90;;;;;;4989677;28;20294;-68
2023/01/26 09:13:13;;;;;;;150.47;27.90;;;3.00;99.90;;;;;;4988404;28;20478;-69
2023/01/26 09:15:39;;;;;;;160.10;27.30;;;3.00;99.90;;;;;;4990669;28;20200;-68
2023/01/26 09:18:06;;;;;;;155.27;27.87;;;3.10;99.90;;;;;;4983431;28;20223;-70
2023/01/26 09:20:33;;;;;;;180.03;28.17;;;3.10;99.90;;;;;;4989358;28;20793;-69
2023/01/26 09:22:59;;;;;;;190.27;28.23;;;3.10;99.90;;;;;;4988748;28;20207;-69
2023/01/26 09:25:26;;;;;;;194.43;29.57;;;3.20;99.90;;;;;;4990635;28;20203;-69
2023/01/26 09:27:53;;;;;;;152.10;27.00;;;3.20;99.90;;;;;;4986549;28;20686;-67
2023/01/26 09:30:19;;;;;;;183.07;29.13;;;3.20;99.90;;;;;;4987578;28;20670;-69
2023/01/26 09:32:46;;;;;;;193.43;29.93;;;3.30;99.90;;;;;;4989438;28;20766;-67
2023/01/26 09:35:13;;;;;;;171.97;28.97;;;3.40;99.90;;;;;;4982354;28;20293;-69
2023/01/26 09:37:43;;;;;;;146.93;26.17;;;3.40;99.90;;;;;;4995663;28;20237;-69
2023/01/26 09:40:18;;;;;;;104.20;23.07;;;3.40;99.90;;;;;;4971998;28;20204;-69
2023/01/26 09:42:47;;;;;;;97.00;22.70;;;3.40;99.90;;;;;;4990740;28;20206;-69
2023/01/26 09:45:25;;;;;;;109.20;23.63;;;3.40;99.90;;;;;;4987155;28;20214;-68
2023/01/26 09:48:17;;;;;;;111.87;24.47;;;3.40;99.90;;;;;;4989624;28;20316;-68
2023/01/26 09:51:09;;;;;;;88.90;21.40;;;3.40;99.90;;;;;;4981711;28;20607;-69
2023/01/26 09:53:46;;;;;;;89.37;22.33;;;3.40;99.90;;;;;;4988099;28;20249;-68
2023/01/26 09:56:19;;;;;;;93.07;23.37;;;3.40;99.90;;;;;;4988218;28;20206;-68
2023/01/26 09:58:56;;;;;;;90.90;23.00;;;3.30;99.90;;;;;;4983634;28;20208;-68
2023/01/26 10:02:05;;;;;;;103.17;22.43;;;3.30;99.90;;;;;;4990469;28;20238;-70
2023/01/26 10:04:36;;;;;;;91.67;21.30;;;3.30;99.90;;;;;;4963131;28;20211;-70
2023/01/26 10:07:09;;;;;;;97.43;22.37;;;3.30;99.90;;;;;;4983552;28;20353;-69
2023/01/26 10:09:39;;;;;;;95.87;22.97;;;3.30;99.90;;;;;;4984100;28;20701;-70
2023/01/26 10:12:24;;;;;;;94.33;22.87;;;3.40;99.90;;;;;;4987299;28;20222;-68
2023/01/26 10:14:52;;;;;;;107.03;23.60;;;3.40;99.90;;;;;;4993328;28;20202;-68
2023/01/26 10:17:30;;;;;;;93.77;22.83;;;3.50;99.90;;;;;;4974804;28;20284;-67
2023/01/26 10:20:06;;;;;;;91.07;20.60;;;3.60;99.90;;;;;;4984393;28;20306;-69
2023/01/26 10:22:43;;;;;;;99.87;19.57;;;3.70;99.90;;;;;;4986283;28;20215;-69
2023/01/26 10:25:24;;;;;;;98.03;20.27;;;3.80;99.90;;;;;;4983679;28;20202;-70
2023/01/26 10:27:51;;;;;;;99.67;19.87;;;3.90;99.90;;;;;;4985577;28;20227;-70
2023/01/26 10:30:20;;;;;;;92.00;20.93;;;4.00;99.90;;;;;;4980073;28;20203;-70
2023/01/26 10:32:51;;;;;;;90.17;18.37;;;4.10;99.90;;;;;;4989000;28;20219;-70
2023/01/26 10:35:23;;;;;;;85.00;18.67;;;4.20;99.90;;;;;;4986266;28;20211;-68
2023/01/26 10:37:51;;;;;;;75.47;17.13;;;4.30;99.90;;;;;;4983146;28;20211;-68
2023/01/26 10:40:19;;;;;;;64.70;16.73;;;4.40;99.90;;;;;;4983187;28;20349;-70
2023/01/26 10:42:58;;;;;;;77.60;17.43;;;4.60;99.90;;;;;;4984543;28;20200;-68
2023/01/26 10:45:27;;;;;;;65.53;15.83;;;4.70;99.90;;;;;;4984055;28;20208;-70
2023/01/26 10:48:05;;;;;;;79.17;17.87;;;4.80;99.90;;;;;;4984023;28;20249;-69
2023/01/26 10:50:32;;;;;;;63.97;15.10;;;4.90;99.90;;;;;;4985252;28;20249;-68
2023/01/26 10:53:03;;;;;;;55.97;13.63;;;5.00;99.90;;;;;;4989575;28;20282;-70
2023/01/26 10:55:36;;;;;;;61.53;12.37;;;5.10;99.90;;;;;;4983798;28;20584;-70
2023/01/26 10:58:02;;;;;;;55.43;11.30;;;5.20;99.90;;;;;;4968765;28;20280;-68
2023/01/26 11:00:32;;;;;;;54.53;12.60;;;5.30;99.90;;;;;;4987129;28;20229;-70
2023/01/26 11:03:14;;;;;;;47.73;11.57;;;5.40;99.90;;;;;;4984894;28;20219;-69
2023/01/26 11:05:42;;;;;;;45.03;10.43;;;5.50;99.90;;;;;;4983601;28;20660;-68
2023/01/26 11:08:35;;;;;;;52.63;10.93;;;5.60;99.90;;;;;;4988815;28;20237;-68
2023/01/26 11:11:06;;;;;;;39.40;11.27;;;5.70;99.90;;;;;;4984553;28;20203;-68
2023/01/26 11:13:33;;;;;;;51.90;10.13;;;5.80;99.90;;;;;;4968932;28;20214;-71
2023/01/26 11:16:12;;;;;;;46.27;8.67;;;5.90;99.90;;;;;;4989960;28;20303;-70
2023/01/26 11:18:45;;;;;;;42.83;8.40;;;6.00;99.90;;;;;;4986515;28;20252;-68
2023/01/26 11:21:27;;;;;;;34.97;9.07;;;6.00;99.90;;;;;;4979149;28;20749;-70
2023/01/26 11:24:23;;;;;;;34.33;7.00;;;6.10;99.90;;;;;;4983018;28;20296;-68
2023/01/26 11:27:17;;;;;;;36.93;7.17;;;6.20;99.90;;;;;;4984540;28;20221;-68
2023/01/26 11:30:11;;;;;;;32.77;6.40;;;6.30;99.90;;;;;;4968070;28;20582;-69
2023/01/26 11:32:38;;;;;;;34.97;5.87;;;6.40;99.90;;;;;;4983686;28;20231;-70
2023/01/26 11:35:21;;;;;;;36.23;5.63;;;6.50;99.90;;;;;;4986753;28;21080;-70
2023/01/26 11:37:58;;;;;;;43.37;7.17;;;6.70;99.90;;;;;;4989406;28;20219;-70
2023/01/26 11:40:39;;;;;;;36.77;5.93;;;6.90;99.90;;;;;;4981476;28;20414;-69
2023/01/26 11:43:18;;;;;;;21.83;4.87;;;7.00;99.90;;;;;;4972699;28;20240;-69
2023/01/26 11:45:50;;;;;;;28.93;5.03;;;7.20;99.90;;;;;;4984389;28;20221;-70
2023/01/26 11:48:35;;;;;;;21.57;5.17;;;7.30;99.90;;;;;;4985630;28;20234;-70
2023/01/26 11:51:26;;;;;;;33.40;5.37;;;7.30;99.90;;;;;;4983827;28;20217;-70
2023/01/26 11:54:10;;;;;;;21.37;3.90;;;7.40;99.90;;;;;;4984396;28;20656;-70
2023/01/26 11:56:42;;;;;;;28.47;4.70;;;7.40;99.90;;;;;;4991173;28;20201;-70
2023/01/26 11:59:26;;;;;;;28.30;6.13;;;7.30;99.90;;;;;;4984269;28;21011;-70
2023/01/26 12:02:02;;;;;;;29.47;4.20;;;7.30;99.90;;;;;;4991726;28;20236;-69
2023/01/26 12:04:35;;;;;;;21.33;5.20;;;7.30;99.90;;;;;;4989878;28;20424;-69
2023/01/26 12:07:27;;;;;;;12.77;4.43;;;7.30;99.90;;;;;;4994395;28;20254;-69
2023/01/26 12:09:55;;;;;;;31.13;4.40;;;7.30;99.90;;;;;;4994708;28;20195;-69
2023/01/26 12:12:21;;;;;;;21.40;4.57;;;7.40;99.90;;;;;;4986346;28;20210;-69
2023/01/26 12:14:56;;;;;;;23.30;4.77;;;7.50;99.90;;;;;;4972650;28;20202;-69
2023/01/26 12:17:30;;;;;;;20.83;4.10;;;7.60;99.90;;;;;;4985722;28;20221;-69
2023/01/26 12:20:14;;;;;;;28.03;4.50;;;7.60;99.90;;;;;;4983251;28;20198;-68
2023/01/26 12:22:51;;;;;;;23.97;3.80;;;7.70;99.90;;;;;;4986647;28;20242;-68
2023/01/26 12:25:35;;;;;;;20.40;4.33;;;7.70;99.90;;;;;;4983490;28;20212;-69
2023/01/26 12:29:00;;;;;;;21.03;4.67;;;7.70;99.90;;;;;;4986094;28;20308;-69
2023/01/26 12:31:34;;;;;;;26.53;4.33;;;7.60;99.90;;;;;;4947896;28;20235;-69
2023/01/26 12:34:01;;;;;;;30.27;4.73;;;7.60;99.90;;;;;;4986512;28;20575;-68
2023/01/26 12:37:05;;;;;;;16.57;3.83;;;7.60;99.90;;;;;;4993251;28;20562;-69
2023/01/26 12:39:44;;;;;;;23.40;4.33;;;7.70;99.90;;;;;;4951310;28;20915;-69
2023/01/26 12:42:26;;;;;;;16.83;3.50;;;7.70;99.90;;;;;;4991489;28;20290;-68
2023/01/26 12:44:53;;;;;;;18.63;3.10;;;7.70;99.90;;;;;;4994161;28;20207;-68
2023/01/26 12:47:48;;;;;;;24.77;4.30;;;7.70;99.90;;;;;;4988417;28;20232;-68
2023/01/26 12:50:38;;;;;;;21.40;4.10;;;7.80;99.90;;;;;;4969172;28;20213;-68
2023/01/26 12:53:14;;;;;;;13.87;3.30;;;7.90;99.90;;;;;;4987448;28;20650;-68
2023/01/26 12:55:55;;;;;;;21.57;3.70;;;7.90;99.90;;;;;;4989659;28;20213;-69
2023/01/26 12:58:30;;;;;;;14.83;3.23;;;7.90;99.90;;;;;;4987474;28;20220;-69
2023/01/26 13:01:14;;;;;;;20.63;3.10;;;8.00;99.90;;;;;;4981882;28;20235;-70
2023/01/26 13:03:52;;;;;;;10.83;3.70;;;8.10;99.90;;;;;;4969463;28;20332;-70
2023/01/26 13:06:23;;;;;;;12.43;2.80;;;8.20;99.90;;;;;;4982495;28;20255;-68
2023/01/26 13:09:18;;;;;;;13.80;2.87;;;8.20;99.90;;;;;;4989320;28;20263;-70
2023/01/26 13:11:58;;;;;;;14.10;2.47;;;8.30;99.90;;;;;;4968153;28;20295;-69
2023/01/26 13:14:39;;;;;;;13.80;2.87;;;8.30;99.90;;;;;;4990794;28;20679;-70
2023/01/26 13:17:15;;;;;;;14.80;2.77;;;8.40;99.90;;;;;;4987530;28;20226;-70
2023/01/26 13:19:41;;;;;;;17.10;2.87;;;8.40;99.90;;;;;;4974970;28;20216;-70
2023/01/26 13:22:17;;;;;;;9.60;2.87;;;8.40;99.90;;;;;;4986878;28;20237;-69
2023/01/26 13:24:47;;;;;;;14.07;2.73;;;8.40;99.90;;;;;;4988037;28;20213;-70
2023/01/26 13:27:33;;;;;;;14.43;2.77;;;8.40;99.90;;;;;;4983001;28;20237;-70
2023/01/26 13:30:00;;;;;;;14.70;3.20;;;8.40;99.90;;;;;;4986984;28;20297;-69
2023/01/26 13:32:27;;;;;;;10.23;3.30;;;8.40;99.90;;;;;;4972824;28;20214;-70
2023/01/26 13:35:00;;;;;;;11.07;2.27;;;8.30;99.90;;;;;;4993977;28;20235;-69
2023/01/26 13:37:51;;;;;;;16.73;3.57;;;8.30;99.90;;;;;;4983127;28;20234;-69
2023/01/26 13:40:27;;;;;;;10.30;2.50;;;8.30;99.90;;;;;;4981889;28;20625;-69